createdAt,value
2018-01-19T00:01:55.753Z,1.77
2018-01-19T00:04:23.521Z,1.83
2018-01-19T00:06:51.869Z,1.82
2018-01-19T00:09:19.734Z,1.50
2018-01-19T00:11:47.301Z,1.82
2018-01-19T00:14:14.939Z,1.83
2018-01-19T00:16:42.544Z,2.28
2018-01-19T00:19:10.483Z,1.87
2018-01-19T00:21:38.196Z,2.04
2018-01-19T00:24:05.844Z,1.75
2018-01-19T00:26:33.500Z,1.53
2018-01-19T00:29:01.118Z,1.77
2018-01-19T00:31:28.733Z,1.68
2018-01-19T00:33:56.347Z,1.64
2018-01-19T00:36:24.154Z,2.10
2018-01-19T00:38:51.792Z,1.73
2018-01-19T00:41:19.434Z,1.66
2018-01-19T00:43:47.071Z,1.43
2018-01-19T00:46:14.795Z,1.62
2018-01-19T00:48:42.464Z,1.41
2018-01-19T00:51:10.565Z,1.43
2018-01-19T00:53:38.158Z,1.54
2018-01-19T00:56:05.835Z,1.38
2018-01-19T00:58:33.670Z,1.39
2018-01-19T01:01:01.310Z,1.06
2018-01-19T01:03:29.050Z,1.30
2018-01-19T01:05:56.695Z,1.46
2018-01-19T01:08:24.385Z,1.42
2018-01-19T01:10:52.962Z,1.01
2018-01-19T01:13:20.604Z,1.09
2018-01-19T01:15:48.274Z,0.98
2018-01-19T01:18:15.888Z,0.90
2018-01-19T01:20:43.479Z,1.22
2018-01-19T01:23:11.115Z,1.56
2018-01-19T01:25:38.713Z,1.31
2018-01-19T01:28:06.359Z,1.36
2018-01-19T01:30:34.084Z,1.32
2018-01-19T01:33:01.824Z,1.33
2018-01-19T01:35:29.495Z,1.17
2018-01-19T01:37:57.173Z,1.47
2018-01-19T01:40:24.830Z,1.53
2018-01-19T01:42:52.418Z,1.31
2018-01-19T01:45:20.094Z,1.07
2018-01-19T01:47:47.735Z,0.97
2018-01-19T01:50:15.452Z,0.80
2018-01-19T01:52:43.159Z,0.97
2018-01-19T01:55:10.785Z,1.29
2018-01-19T01:57:38.411Z,1.74
2018-01-19T02:00:07.319Z,1.25
2018-01-19T02:02:34.946Z,1.17
2018-01-19T02:05:02.651Z,1.06
2018-01-19T02:07:30.439Z,1.15
2018-01-19T02:09:58.146Z,1.60
2018-01-19T02:12:25.770Z,1.11
2018-01-19T02:14:53.498Z,1.40
2018-01-19T02:17:21.120Z,1.22
2018-01-19T02:19:48.814Z,1.24
2018-01-19T02:22:17.185Z,0.86
2018-01-19T02:24:44.850Z,1.02
2018-01-19T02:27:12.506Z,1.09
2018-01-19T02:29:40.193Z,1.03
2018-01-19T02:32:08.098Z,1.03
2018-01-19T02:34:36.572Z,0.89
2018-01-19T02:37:04.281Z,1.00
2018-01-19T02:39:31.903Z,1.32
2018-01-19T02:41:59.827Z,1.14
2018-01-19T02:44:27.490Z,1.17
2018-01-19T02:46:55.180Z,1.32
2018-01-19T02:49:22.808Z,0.88
2018-01-19T02:51:50.639Z,0.90
2018-01-19T02:54:18.302Z,0.84
2018-01-19T02:56:45.873Z,0.88
2018-01-19T02:59:13.476Z,0.73
2018-01-19T03:01:41.118Z,1.33
2018-01-19T03:04:08.781Z,1.42
2018-01-19T03:06:36.958Z,1.05
2018-01-19T03:09:04.906Z,1.20
2018-01-19T03:11:33.107Z,1.18
2018-01-19T03:14:00.678Z,0.89
2018-01-19T03:16:28.443Z,1.38
2018-01-19T03:18:56.920Z,1.23
2018-01-19T03:21:24.555Z,1.05
2018-01-19T03:23:53.024Z,1.05
2018-01-19T03:26:20.632Z,1.14
2018-01-19T03:28:48.244Z,1.43
2018-01-19T03:31:16.093Z,1.30
2018-01-19T03:33:43.804Z,1.29
2018-01-19T03:36:11.467Z,1.18
2018-01-19T03:38:39.115Z,1.73
2018-01-19T03:41:07.705Z,1.71
2018-01-19T03:43:35.324Z,1.40
2018-01-19T03:46:02.969Z,1.21
2018-01-19T03:48:30.659Z,1.23
2018-01-19T03:50:58.273Z,1.15
2018-01-19T03:53:25.878Z,1.18
2018-01-19T03:55:53.634Z,1.32
2018-01-19T03:58:21.542Z,1.02
2018-01-19T04:00:49.229Z,1.22
2018-01-19T04:03:16.901Z,0.99
2018-01-19T04:05:44.594Z,1.04
2018-01-19T04:08:12.255Z,1.21
2018-01-19T04:10:39.902Z,1.05
2018-01-19T04:13:07.599Z,1.07
2018-01-19T04:15:35.280Z,1.07
2018-01-19T04:18:04.002Z,0.78
2018-01-19T04:20:31.680Z,0.86
2018-01-19T04:22:59.374Z,1.31
2018-01-19T04:25:27.053Z,0.90
2018-01-19T04:27:54.732Z,0.98
2018-01-19T04:30:22.532Z,0.86
2018-01-19T04:32:50.252Z,1.37
2018-01-19T04:35:17.966Z,1.09
2018-01-19T04:37:45.714Z,0.75
2018-01-19T04:40:13.432Z,0.63
2018-01-19T04:42:42.327Z,1.06
2018-01-19T04:45:10.102Z,1.34
2018-01-19T04:50:10.350Z,0.90
2018-01-19T04:52:38.009Z,1.09
2018-01-19T04:55:05.717Z,0.98
2018-01-19T04:57:33.719Z,1.12
2018-01-19T05:00:02.271Z,0.81
2018-01-19T05:02:29.960Z,0.70
2018-01-19T05:04:57.620Z,1.11
2018-01-19T05:07:25.275Z,1.35
2018-01-19T05:09:52.901Z,0.99
2018-01-19T05:12:20.929Z,1.58
2018-01-19T05:14:48.763Z,1.42
2018-01-19T05:17:16.869Z,1.46
2018-01-19T05:19:44.669Z,1.73
2018-01-19T05:22:12.727Z,1.40
2018-01-19T05:24:40.539Z,1.42
2018-01-19T05:27:08.222Z,1.53
2018-01-19T05:29:36.147Z,0.93
2018-01-19T05:32:05.131Z,1.33
2018-01-19T05:34:33.064Z,1.38
2018-01-19T05:37:01.012Z,1.14
2018-01-19T05:39:28.765Z,0.90
2018-01-19T05:41:56.446Z,1.25
2018-01-19T05:44:24.186Z,0.95
2018-01-19T05:49:27.750Z,1.40
2018-01-19T05:51:56.030Z,1.12
2018-01-19T05:54:23.711Z,1.40
2018-01-19T05:56:51.462Z,0.88
2018-01-19T05:59:19.936Z,1.02
2018-01-19T06:01:49.362Z,1.69
2018-01-19T06:04:17.088Z,1.89
2018-01-19T06:06:45.024Z,2.29
2018-01-19T06:09:12.748Z,3.68
2018-01-19T06:11:42.051Z,3.26
2018-01-19T06:14:09.694Z,4.26
2018-01-19T06:16:38.918Z,5.48
2018-01-19T06:19:06.589Z,5.06
2018-01-19T06:21:35.887Z,6.03
2018-01-19T06:24:03.650Z,5.65
2018-01-19T06:26:31.375Z,6.33
2018-01-19T06:28:59.392Z,6.79
2018-01-19T06:31:27.069Z,7.08
2018-01-19T06:33:54.723Z,8.19
2018-01-19T06:36:22.477Z,7.59
2018-01-19T06:38:50.106Z,8.48
2018-01-19T06:41:17.749Z,8.96
2018-01-19T06:43:45.584Z,9.00
2018-01-19T06:46:13.178Z,7.66
2018-01-19T06:48:40.765Z,7.90
2018-01-19T06:51:08.686Z,10.10
2018-01-19T06:53:36.282Z,10.21
2018-01-19T06:56:04.797Z,10.75
2018-01-19T06:58:32.412Z,7.85
2018-01-19T07:01:00.121Z,9.05
2018-01-19T07:03:27.770Z,9.46
2018-01-19T07:05:55.342Z,8.55
2018-01-19T07:08:22.944Z,8.44
2018-01-19T07:10:50.576Z,10.89
2018-01-19T07:13:18.185Z,10.09
2018-01-19T07:15:45.768Z,9.92
2018-01-19T07:18:14.354Z,9.66
2018-01-19T07:20:42.912Z,10.12
2018-01-19T07:23:10.573Z,11.61
2018-01-19T07:25:38.270Z,11.13
2018-01-19T07:28:05.974Z,10.64
2018-01-19T07:30:33.680Z,11.27
2018-01-19T07:33:01.336Z,11.43
2018-01-19T07:35:29.024Z,12.11
2018-01-19T07:37:56.648Z,12.42
2018-01-19T07:40:24.466Z,12.92
2018-01-19T07:42:52.254Z,12.84
2018-01-19T07:45:20.652Z,11.94
2018-01-19T07:47:48.425Z,13.65
2018-01-19T07:50:16.091Z,12.50
2018-01-19T07:52:43.778Z,12.30
2018-01-19T07:55:11.412Z,12.84
2018-01-19T07:57:39.097Z,10.65
2018-01-19T08:00:07.028Z,12.85
2018-01-19T08:02:34.865Z,12.51
2018-01-19T08:05:02.459Z,12.89
2018-01-19T08:07:30.107Z,13.21
2018-01-19T08:09:57.705Z,13.72
2018-01-19T08:12:25.333Z,12.43
2018-01-19T08:14:53.276Z,12.06
2018-01-19T08:17:20.976Z,13.18
2018-01-19T08:19:51.954Z,14.22
2018-01-19T08:22:24.506Z,14.29
2018-01-19T08:24:54.055Z,13.51
2018-01-19T08:27:21.793Z,15.20
2018-01-19T08:29:51.731Z,15.37
2018-01-19T08:32:19.626Z,15.16
2018-01-19T08:34:48.136Z,15.76
2018-01-19T08:37:15.777Z,16.20
2018-01-19T08:39:43.767Z,15.08
2018-01-19T08:42:11.622Z,15.92
2018-01-19T08:44:39.606Z,15.97
2018-01-19T08:47:08.572Z,15.05
2018-01-19T08:49:36.342Z,14.65
2018-01-19T08:52:04.390Z,15.64
2018-01-19T08:54:32.574Z,16.72
2018-01-19T08:57:01.714Z,16.63
2018-01-19T08:59:30.071Z,18.09
2018-01-19T09:01:58.129Z,17.88
2018-01-19T09:04:26.196Z,17.80
2018-01-19T09:06:54.381Z,16.43
2018-01-19T09:09:22.992Z,17.50
2018-01-19T09:11:51.260Z,18.33
2018-01-19T09:14:18.887Z,18.47
2018-01-19T09:16:47.180Z,17.80
2018-01-19T09:19:14.831Z,16.65
2018-01-19T09:21:42.560Z,17.93
2018-01-19T09:24:10.275Z,16.68
2018-01-19T09:26:37.958Z,16.04
2018-01-19T09:29:08.691Z,17.67
2018-01-19T09:31:41.462Z,17.77
2018-01-19T09:34:09.756Z,18.31
2018-01-19T09:36:37.754Z,17.03
2018-01-19T09:39:05.435Z,17.73
2018-01-19T09:41:33.194Z,18.86
2018-01-19T09:44:01.924Z,17.94
2018-01-19T09:46:29.541Z,20.01
2018-01-19T09:48:58.196Z,20.20
2018-01-19T09:51:25.912Z,19.98
2018-01-19T09:54:18.635Z,18.11
2018-01-19T17:42:53.433Z,5.93
2018-01-19T17:45:21.282Z,6.08
2018-01-19T17:47:49.706Z,5.81
2018-01-19T17:50:18.188Z,5.90
2018-01-19T17:52:46.305Z,5.96
2018-01-19T17:55:14.381Z,6.03
2018-01-19T17:57:43.197Z,6.36
2018-01-19T18:00:15.122Z,6.59
2018-01-19T18:02:43.693Z,6.38
2018-01-19T18:05:11.397Z,5.89
2018-01-19T18:07:40.628Z,5.74
2018-01-19T18:10:10.214Z,5.84
2018-01-19T18:12:39.447Z,6.47
2018-01-19T18:15:07.689Z,7.02
2018-01-19T18:17:42.409Z,7.20
2018-01-19T18:20:12.178Z,7.50
2018-01-19T18:22:44.827Z,7.98
2018-01-19T18:28:19.516Z,7.69
2018-01-19T18:37:56.310Z,6.82
2018-01-19T18:40:29.203Z,7.39
2018-01-19T18:42:57.396Z,7.54
2018-01-19T18:45:36.838Z,7.90
2018-01-19T18:48:08.359Z,8.36
2018-01-19T18:50:38.825Z,8.12
2018-01-19T18:53:09.373Z,7.46
2018-01-19T18:55:41.591Z,6.99
2018-01-19T18:58:10.646Z,6.09
2018-01-19T19:00:43.581Z,6.58
2018-01-19T19:09:32.787Z,6.22
2018-01-19T19:14:50.282Z,6.35
2018-01-19T19:17:21.041Z,6.16
2018-01-19T19:19:53.027Z,6.35
2018-01-19T19:22:20.773Z,6.00
2018-01-19T19:24:52.220Z,6.16
2018-01-19T19:27:22.829Z,6.74
2018-01-19T19:29:51.121Z,6.78
2018-01-19T19:32:22.862Z,6.99
2018-01-19T19:35:07.412Z,6.24
